Terminal Aerodrome Forecast
Issued by NWS

Home | Current Version | Previous Version | Text Only | Print | Product List | Glossary On
Versions: 1 2 3 4 5 6 7 8 9 10 11 12
000
FTUS43 KICT 081722
TAFSLN
TAF
KSLN 081722Z 0818/0918 33030G38KT P6SM SKC
     FM090000 33017G25KT P6SM SCT250
     FM090300 32013KT P6SM SCT250=

USA.gov is the U.S. government's official web portal to all federal, state and local government web resources and services.